sensor_id;sensor_type;location;lat;lon;timestamp;temperature;humidity
17740;DHT22;8990;33.226;-97.150;2024-02-15T00:00:41;17.90;99.90
17740;DHT22;8990;33.226;-97.150;2024-02-15T00:03:10;17.80;99.90
17740;DHT22;8990;33.226;-97.150;2024-02-15T00:05:40;17.70;99.90
17740;DHT22;8990;33.226;-97.150;2024-02-15T00:08:09;17.60;99.90
17740;DHT22;8990;33.226;-97.150;2024-02-15T00:10:38;17.50;99.90
17740;DHT22;8990;33.226;-97.150;2024-02-15T00:13:07;17.50;99.90
17740;DHT22;8990;33.226;-97.150;2024-02-15T00:15:38;17.40;99.90
17740;DHT22;8990;33.226;-97.150;2024-02-15T00:18:07;17.30;99.90
17740;DHT22;8990;33.226;-97.150;2024-02-15T00:20:36;17.30;99.90
17740;DHT22;8990;33.226;-97.150;2024-02-15T00:23:05;17.10;99.90
17740;DHT22;8990;33.226;-97.150;2024-02-15T00:25:34;17.10;99.90
17740;DHT22;8990;33.226;-97.150;2024-02-15T00:28:04;17.00;99.90
17740;DHT22;8990;33.226;-97.150;2024-02-15T00:30:34;17.00;99.90
17740;DHT22;8990;33.226;-97.150;2024-02-15T00:33:05;16.90;99.90
17740;DHT22;8990;33.226;-97.150;2024-02-15T00:35:34;16.80;99.90
17740;DHT22;8990;33.226;-97.150;2024-02-15T00:38:03;16.70;99.90
17740;DHT22;8990;33.226;-97.150;2024-02-15T00:40:34;16.70;99.90
17740;DHT22;8990;33.226;-97.150;2024-02-15T00:43:03;16.60;99.90
17740;DHT22;8990;33.226;-97.150;2024-02-15T00:45:32;16.50;99.90
17740;DHT22;8990;33.226;-97.150;2024-02-15T00:48:04;16.50;99.90
17740;DHT22;8990;33.226;-97.150;2024-02-15T00:50:33;16.50;99.90
17740;DHT22;8990;33.226;-97.150;2024-02-15T00:53:02;16.40;99.90
17740;DHT22;8990;33.226;-97.150;2024-02-15T00:55:31;16.40;99.90
17740;DHT22;8990;33.226;-97.150;2024-02-15T00:58:00;16.40;99.90
17740;DHT22;8990;33.226;-97.150;2024-02-15T01:00:29;16.30;99.90
17740;DHT22;8990;33.226;-97.150;2024-02-15T01:02:58;16.30;99.90
17740;DHT22;8990;33.226;-97.150;2024-02-15T01:05:29;16.20;99.90
17740;DHT22;8990;33.226;-97.150;2024-02-15T01:07:58;16.20;99.90
17740;DHT22;8990;33.226;-97.150;2024-02-15T01:10:27;16.20;99.90
17740;DHT22;8990;33.226;-97.150;2024-02-15T01:12:56;16.20;99.90
17740;DHT22;8990;33.226;-97.150;2024-02-15T01:15:25;16.10;99.90
17740;DHT22;8990;33.226;-97.150;2024-02-15T01:17:55;16.10;99.90
17740;DHT22;8990;33.226;-97.150;2024-02-15T01:20:24;16.00;99.90
17740;DHT22;8990;33.226;-97.150;2024-02-15T01:22:55;16.00;99.90
17740;DHT22;8990;33.226;-97.150;2024-02-15T01:25:24;16.00;99.90
17740;DHT22;8990;33.226;-97.150;2024-02-15T01:27:55;16.00;99.90
17740;DHT22;8990;33.226;-97.150;2024-02-15T01:30:24;16.00;99.90
17740;DHT22;8990;33.226;-97.150;2024-02-15T01:32:53;15.90;99.90
17740;DHT22;8990;33.226;-97.150;2024-02-15T01:35:22;15.90;99.90
17740;DHT22;8990;33.226;-97.150;2024-02-15T01:37:52;15.80;99.90
17740;DHT22;8990;33.226;-97.150;2024-02-15T01:40:23;15.90;99.90
17740;DHT22;8990;33.226;-97.150;2024-02-15T01:42:52;15.80;99.90
17740;DHT22;8990;33.226;-97.150;2024-02-15T01:45:22;15.80;99.90
17740;DHT22;8990;33.226;-97.150;2024-02-15T01:47:52;15.80;99.90
17740;DHT22;8990;33.226;-97.150;2024-02-15T01:50:24;15.80;99.90
17740;DHT22;8990;33.226;-97.150;2024-02-15T01:52:55;15.70;99.90
17740;DHT22;8990;33.226;-97.150;2024-02-15T01:55:27;15.70;99.90
17740;DHT22;8990;33.226;-97.150;2024-02-15T01:57:56;15.70;99.90
17740;DHT22;8990;33.226;-97.150;2024-02-15T02:00:25;15.70;99.90
17740;DHT22;8990;33.226;-97.150;2024-02-15T02:02:54;15.70;99.90
17740;DHT22;8990;33.226;-97.150;2024-02-15T02:05:29;15.60;99.90
17740;DHT22;8990;33.226;-97.150;2024-02-15T02:07:59;15.60;99.90
17740;DHT22;8990;33.226;-97.150;2024-02-15T02:10:32;15.60;99.90
17740;DHT22;8990;33.226;-97.150;2024-02-15T02:13:02;15.50;99.90
17740;DHT22;8990;33.226;-97.150;2024-02-15T02:15:32;15.50;99.90
17740;DHT22;8990;33.226;-97.150;2024-02-15T02:18:01;15.60;99.90
17740;DHT22;8990;33.226;-97.150;2024-02-15T02:20:31;15.40;99.90
17740;DHT22;8990;33.226;-97.150;2024-02-15T02:23:05;15.50;99.90
17740;DHT22;8990;33.226;-97.150;2024-02-15T02:25:38;15.50;99.90
17740;DHT22;8990;33.226;-97.150;2024-02-15T02:28:09;15.50;99.90
17740;DHT22;8990;33.226;-97.150;2024-02-15T02:30:38;15.40;99.90
17740;DHT22;8990;33.226;-97.150;2024-02-15T02:33:11;15.40;99.90
17740;DHT22;8990;33.226;-97.150;2024-02-15T02:35:46;15.30;99.90
17740;DHT22;8990;33.226;-97.150;2024-02-15T02:38:15;15.40;99.90
17740;DHT22;8990;33.226;-97.150;2024-02-15T02:40:46;15.30;99.90
17740;DHT22;8990;33.226;-97.150;2024-02-15T02:43:15;15.30;99.90
17740;DHT22;8990;33.226;-97.150;2024-02-15T02:45:44;15.30;99.90
17740;DHT22;8990;33.226;-97.150;2024-02-15T02:48:13;15.20;99.90
17740;DHT22;8990;33.226;-97.150;2024-02-15T02:50:45;15.20;99.90
17740;DHT22;8990;33.226;-97.150;2024-02-15T02:53:13;15.20;99.90
17740;DHT22;8990;33.226;-97.150;2024-02-15T02:55:44;15.20;99.90
17740;DHT22;8990;33.226;-97.150;2024-02-15T02:58:13;15.20;99.90
17740;DHT22;8990;33.226;-97.150;2024-02-15T03:00:42;15.20;99.90
17740;DHT22;8990;33.226;-97.150;2024-02-15T03:03:11;15.10;99.90
17740;DHT22;8990;33.226;-97.150;2024-02-15T03:05:40;15.10;99.90
17740;DHT22;8990;33.226;-97.150;2024-02-15T03:08:11;15.10;99.90
17740;DHT22;8990;33.226;-97.150;2024-02-15T03:10:40;15.10;99.90
17740;DHT22;8990;33.226;-97.150;2024-02-15T03:13:11;15.10;99.90
17740;DHT22;8990;33.226;-97.150;2024-02-15T03:15:40;15.10;99.90
17740;DHT22;8990;33.226;-97.150;2024-02-15T03:18:10;15.10;99.90
17740;DHT22;8990;33.226;-97.150;2024-02-15T03:20:39;15.10;99.90
17740;DHT22;8990;33.226;-97.150;2024-02-15T03:23:08;15.10;99.90
17740;DHT22;8990;33.226;-97.150;2024-02-15T03:25:38;15.10;99.90
17740;DHT22;8990;33.226;-97.150;2024-02-15T03:28:07;15.10;99.90
17740;DHT22;8990;33.226;-97.150;2024-02-15T03:30:37;15.10;99.90
17740;DHT22;8990;33.226;-97.150;2024-02-15T03:33:06;15.00;99.90
17740;DHT22;8990;33.226;-97.150;2024-02-15T03:35:35;15.00;99.90
17740;DHT22;8990;33.226;-97.150;2024-02-15T03:38:05;15.00;99.90
17740;DHT22;8990;33.226;-97.150;2024-02-15T03:40:35;15.00;99.90
17740;DHT22;8990;33.226;-97.150;2024-02-15T03:43:04;15.00;99.90
17740;DHT22;8990;33.226;-97.150;2024-02-15T03:45:34;14.90;99.90
17740;DHT22;8990;33.226;-97.150;2024-02-15T03:48:05;14.90;99.90
17740;DHT22;8990;33.226;-97.150;2024-02-15T03:50:35;14.90;99.90
17740;DHT22;8990;33.226;-97.150;2024-02-15T03:53:04;14.90;99.90
17740;DHT22;8990;33.226;-97.150;2024-02-15T03:55:33;14.90;99.90
17740;DHT22;8990;33.226;-97.150;2024-02-15T03:58:03;14.90;99.90
17740;DHT22;8990;33.226;-97.150;2024-02-15T04:00:32;14.80;99.90
17740;DHT22;8990;33.226;-97.150;2024-02-15T04:03:01;14.80;99.90
17740;DHT22;8990;33.226;-97.150;2024-02-15T04:05:32;14.70;99.90
17740;DHT22;8990;33.226;-97.150;2024-02-15T04:08:01;14.80;99.90
17740;DHT22;8990;33.226;-97.150;2024-02-15T04:10:32;14.70;99.90
17740;DHT22;8990;33.226;-97.150;2024-02-15T04:13:01;14.70;99.90
17740;DHT22;8990;33.226;-97.150;2024-02-15T04:15:30;14.60;99.90
17740;DHT22;8990;33.226;-97.150;2024-02-15T04:18:00;14.70;99.90
17740;DHT22;8990;33.226;-97.150;2024-02-15T04:20:29;14.60;99.90
17740;DHT22;8990;33.226;-97.150;2024-02-15T04:23:00;14.60;99.90
17740;DHT22;8990;33.226;-97.150;2024-02-15T04:25:28;14.60;99.90
17740;DHT22;8990;33.226;-97.150;2024-02-15T04:27:58;14.50;99.90
17740;DHT22;8990;33.226;-97.150;2024-02-15T04:30:30;14.60;99.90
17740;DHT22;8990;33.226;-97.150;2024-02-15T04:32:59;14.50;99.90
17740;DHT22;8990;33.226;-97.150;2024-02-15T04:35:28;14.50;99.90
17740;DHT22;8990;33.226;-97.150;2024-02-15T04:37:59;14.50;99.90
17740;DHT22;8990;33.226;-97.150;2024-02-15T04:40:28;14.40;99.90
17740;DHT22;8990;33.226;-97.150;2024-02-15T04:42:57;14.40;99.90
17740;DHT22;8990;33.226;-97.150;2024-02-15T04:45:26;14.40;99.90
17740;DHT22;8990;33.226;-97.150;2024-02-15T04:47:57;14.40;99.90
17740;DHT22;8990;33.226;-97.150;2024-02-15T04:50:28;14.30;99.90
17740;DHT22;8990;33.226;-97.150;2024-02-15T04:52:59;14.40;99.90
17740;DHT22;8990;33.226;-97.150;2024-02-15T04:55:28;14.30;99.90
17740;DHT22;8990;33.226;-97.150;2024-02-15T04:57:58;14.30;99.90
17740;DHT22;8990;33.226;-97.150;2024-02-15T05:00:27;14.20;99.90
17740;DHT22;8990;33.226;-97.150;2024-02-15T05:02:56;14.20;99.90
17740;DHT22;8990;33.226;-97.150;2024-02-15T05:05:25;14.10;99.90
17740;DHT22;8990;33.226;-97.150;2024-02-15T05:07:56;14.10;99.90
17740;DHT22;8990;33.226;-97.150;2024-02-15T05:10:27;14.00;99.90
17740;DHT22;8990;33.226;-97.150;2024-02-15T05:12:56;14.10;99.90
17740;DHT22;8990;33.226;-97.150;2024-02-15T05:15:28;14.00;99.90
17740;DHT22;8990;33.226;-97.150;2024-02-15T05:17:57;14.00;99.90
17740;DHT22;8990;33.226;-97.150;2024-02-15T05:20:28;13.90;99.90
17740;DHT22;8990;33.226;-97.150;2024-02-15T05:22:57;13.80;99.90
17740;DHT22;8990;33.226;-97.150;2024-02-15T05:25:27;13.90;99.90
17740;DHT22;8990;33.226;-97.150;2024-02-15T05:28:00;13.90;99.90
17740;DHT22;8990;33.226;-97.150;2024-02-15T05:30:30;13.90;99.90
17740;DHT22;8990;33.226;-97.150;2024-02-15T05:32:59;13.90;99.90
17740;DHT22;8990;33.226;-97.150;2024-02-15T05:35:28;13.80;99.90
17740;DHT22;8990;33.226;-97.150;2024-02-15T05:37:57;13.80;99.90
17740;DHT22;8990;33.226;-97.150;2024-02-15T05:40:27;13.80;99.90
17740;DHT22;8990;33.226;-97.150;2024-02-15T05:42:57;13.70;99.90
17740;DHT22;8990;33.226;-97.150;2024-02-15T05:45:30;13.60;99.90
17740;DHT22;8990;33.226;-97.150;2024-02-15T05:48:04;13.60;99.90
17740;DHT22;8990;33.226;-97.150;2024-02-15T05:50:36;13.60;99.90
17740;DHT22;8990;33.226;-97.150;2024-02-15T05:53:05;13.60;99.90
17740;DHT22;8990;33.226;-97.150;2024-02-15T05:55:36;13.60;99.90
17740;DHT22;8990;33.226;-97.150;2024-02-15T05:58:07;13.60;99.90
17740;DHT22;8990;33.226;-97.150;2024-02-15T06:00:38;13.50;99.90
17740;DHT22;8990;33.226;-97.150;2024-02-15T06:03:08;13.50;99.90
17740;DHT22;8990;33.226;-97.150;2024-02-15T06:05:38;13.50;99.90
17740;DHT22;8990;33.226;-97.150;2024-02-15T06:08:07;13.40;99.90
17740;DHT22;8990;33.226;-97.150;2024-02-15T06:10:37;13.40;99.90
17740;DHT22;8990;33.226;-97.150;2024-02-15T06:13:07;13.40;99.90
17740;DHT22;8990;33.226;-97.150;2024-02-15T06:15:37;13.40;99.90
17740;DHT22;8990;33.226;-97.150;2024-02-15T06:18:06;13.30;99.90
17740;DHT22;8990;33.226;-97.150;2024-02-15T06:20:38;13.30;99.90
17740;DHT22;8990;33.226;-97.150;2024-02-15T06:23:07;13.40;99.90
17740;DHT22;8990;33.226;-97.150;2024-02-15T06:25:38;13.30;99.90
17740;DHT22;8990;33.226;-97.150;2024-02-15T06:28:07;13.20;99.90
17740;DHT22;8990;33.226;-97.150;2024-02-15T06:31:01;13.30;99.90
17740;DHT22;8990;33.226;-97.150;2024-02-15T06:33:47;13.20;99.90
17740;DHT22;8990;33.226;-97.150;2024-02-15T06:36:33;13.20;99.90
17740;DHT22;8990;33.226;-97.150;2024-02-15T06:39:19;13.20;99.90
17740;DHT22;8990;33.226;-97.150;2024-02-15T06:42:06;13.10;99.90
17740;DHT22;8990;33.226;-97.150;2024-02-15T06:44:36;13.10;99.90
17740;DHT22;8990;33.226;-97.150;2024-02-15T06:47:07;13.00;99.90
17740;DHT22;8990;33.226;-97.150;2024-02-15T06:49:38;13.10;99.90
17740;DHT22;8990;33.226;-97.150;2024-02-15T06:52:08;13.00;99.90
17740;DHT22;8990;33.226;-97.150;2024-02-15T06:54:39;12.90;99.90
17740;DHT22;8990;33.226;-97.150;2024-02-15T06:57:10;12.80;99.90
17740;DHT22;8990;33.226;-97.150;2024-02-15T06:59:39;12.70;99.90
17740;DHT22;8990;33.226;-97.150;2024-02-15T07:02:09;12.60;99.90
17740;DHT22;8990;33.226;-97.150;2024-02-15T07:04:39;12.70;99.90
17740;DHT22;8990;33.226;-97.150;2024-02-15T07:07:08;12.50;99.90
17740;DHT22;8990;33.226;-97.150;2024-02-15T07:09:37;12.50;99.90
17740;DHT22;8990;33.226;-97.150;2024-02-15T07:12:06;12.50;99.90
17740;DHT22;8990;33.226;-97.150;2024-02-15T07:14:37;12.50;99.90
17740;DHT22;8990;33.226;-97.150;2024-02-15T07:17:06;12.40;99.90
17740;DHT22;8990;33.226;-97.150;2024-02-15T07:19:35;12.20;99.90
17740;DHT22;8990;33.226;-97.150;2024-02-15T07:22:05;12.20;99.90
17740;DHT22;8990;33.226;-97.150;2024-02-15T07:24:34;12.20;99.90
17740;DHT22;8990;33.226;-97.150;2024-02-15T07:27:05;12.20;99.90
17740;DHT22;8990;33.226;-97.150;2024-02-15T07:29:36;12.30;99.90
17740;DHT22;8990;33.226;-97.150;2024-02-15T07:32:06;12.20;99.90
17740;DHT22;8990;33.226;-97.150;2024-02-15T07:34:35;12.10;99.90
17740;DHT22;8990;33.226;-97.150;2024-02-15T07:37:04;12.30;99.90
17740;DHT22;8990;33.226;-97.150;2024-02-15T07:39:36;12.20;99.90
17740;DHT22;8990;33.226;-97.150;2024-02-15T07:42:05;12.20;99.90
17740;DHT22;8990;33.226;-97.150;2024-02-15T07:44:37;12.30;99.90
17740;DHT22;8990;33.226;-97.150;2024-02-15T07:47:06;12.20;99.90
17740;DHT22;8990;33.226;-97.150;2024-02-15T07:49:36;12.30;99.90
17740;DHT22;8990;33.226;-97.150;2024-02-15T07:52:05;12.30;99.90
17740;DHT22;8990;33.226;-97.150;2024-02-15T07:54:34;12.40;99.90
17740;DHT22;8990;33.226;-97.150;2024-02-15T07:57:04;12.40;99.90
17740;DHT22;8990;33.226;-97.150;2024-02-15T07:59:33;12.50;99.90
17740;DHT22;8990;33.226;-97.150;2024-02-15T08:02:04;12.50;99.90
17740;DHT22;8990;33.226;-97.150;2024-02-15T08:04:33;12.50;99.90
17740;DHT22;8990;33.226;-97.150;2024-02-15T08:07:07;12.50;99.90
17740;DHT22;8990;33.226;-97.150;2024-02-15T08:09:37;12.60;99.90
17740;DHT22;8990;33.226;-97.150;2024-02-15T08:12:07;12.50;99.90
17740;DHT22;8990;33.226;-97.150;2024-02-15T08:14:36;12.50;99.90
17740;DHT22;8990;33.226;-97.150;2024-02-15T08:17:08;12.60;99.90
17740;DHT22;8990;33.226;-97.150;2024-02-15T08:19:40;12.50;99.90
17740;DHT22;8990;33.226;-97.150;2024-02-15T08:22:10;12.50;99.90
17740;DHT22;8990;33.226;-97.150;2024-02-15T08:24:39;12.60;99.90
17740;DHT22;8990;33.226;-97.150;2024-02-15T08:27:08;12.40;99.90
17740;DHT22;8990;33.226;-97.150;2024-02-15T08:29:37;12.70;99.90
17740;DHT22;8990;33.226;-97.150;2024-02-15T08:32:08;12.70;99.90
17740;DHT22;8990;33.226;-97.150;2024-02-15T08:34:38;12.70;99.90
17740;DHT22;8990;33.226;-97.150;2024-02-15T08:37:07;12.50;99.90
17740;DHT22;8990;33.226;-97.150;2024-02-15T08:39:37;12.50;99.90
17740;DHT22;8990;33.226;-97.150;2024-02-15T08:42:06;12.60;99.90
17740;DHT22;8990;33.226;-97.150;2024-02-15T08:44:35;12.60;99.90
17740;DHT22;8990;33.226;-97.150;2024-02-15T08:47:04;12.50;99.90
17740;DHT22;8990;33.226;-97.150;2024-02-15T08:49:35;12.70;99.90
17740;DHT22;8990;33.226;-97.150;2024-02-15T08:52:05;12.70;99.90
17740;DHT22;8990;33.226;-97.150;2024-02-15T08:54:35;12.60;99.90
17740;DHT22;8990;33.226;-97.150;2024-02-15T08:57:06;12.50;99.90
17740;DHT22;8990;33.226;-97.150;2024-02-15T08:59:34;12.60;99.90
17740;DHT22;8990;33.226;-97.150;2024-02-15T09:02:04;12.70;99.90
17740;DHT22;8990;33.226;-97.150;2024-02-15T09:04:36;12.70;99.90
17740;DHT22;8990;33.226;-97.150;2024-02-15T09:07:05;12.70;99.90
17740;DHT22;8990;33.226;-97.150;2024-02-15T09:09:34;12.70;99.90
17740;DHT22;8990;33.226;-97.150;2024-02-15T09:12:04;12.70;99.90
17740;DHT22;8990;33.226;-97.150;2024-02-15T09:14:33;12.60;99.90
17740;DHT22;8990;33.226;-97.150;2024-02-15T09:17:04;12.60;99.90
17740;DHT22;8990;33.226;-97.150;2024-02-15T09:19:36;12.70;99.90
17740;DHT22;8990;33.226;-97.150;2024-02-15T09:22:05;12.70;99.90
17740;DHT22;8990;33.226;-97.150;2024-02-15T09:24:34;12.70;99.90
17740;DHT22;8990;33.226;-97.150;2024-02-15T09:27:03;12.50;99.90
17740;DHT22;8990;33.226;-97.150;2024-02-15T09:29:32;12.60;99.90
17740;DHT22;8990;33.226;-97.150;2024-02-15T09:32:01;12.60;99.90
17740;DHT22;8990;33.226;-97.150;2024-02-15T09:34:30;12.70;99.90
17740;DHT22;8990;33.226;-97.150;2024-02-15T09:37:01;12.70;99.90
17740;DHT22;8990;33.226;-97.150;2024-02-15T09:39:32;12.70;99.90
17740;DHT22;8990;33.226;-97.150;2024-02-15T09:42:03;12.60;99.90
17740;DHT22;8990;33.226;-97.150;2024-02-15T09:44:33;12.70;99.90
17740;DHT22;8990;33.226;-97.150;2024-02-15T09:47:03;12.60;99.90
17740;DHT22;8990;33.226;-97.150;2024-02-15T09:49:37;12.50;99.90
17740;DHT22;8990;33.226;-97.150;2024-02-15T09:52:09;12.60;99.90
17740;DHT22;8990;33.226;-97.150;2024-02-15T09:54:43;12.50;99.90
17740;DHT22;8990;33.226;-97.150;2024-02-15T09:57:12;12.50;99.90
17740;DHT22;8990;33.226;-97.150;2024-02-15T09:59:41;12.60;99.90
17740;DHT22;8990;33.226;-97.150;2024-02-15T10:02:11;12.30;99.90
17740;DHT22;8990;33.226;-97.150;2024-02-15T10:04:41;12.50;99.90
17740;DHT22;8990;33.226;-97.150;2024-02-15T10:07:13;12.40;99.90
17740;DHT22;8990;33.226;-97.150;2024-02-15T10:09:42;12.50;99.90
17740;DHT22;8990;33.226;-97.150;2024-02-15T10:12:11;12.50;99.90
17740;DHT22;8990;33.226;-97.150;2024-02-15T10:14:48;12.40;99.90
17740;DHT22;8990;33.226;-97.150;2024-02-15T10:17:19;12.30;99.90
17740;DHT22;8990;33.226;-97.150;2024-02-15T10:20:03;12.40;99.90
17740;DHT22;8990;33.226;-97.150;2024-02-15T10:22:34;12.40;99.90
17740;DHT22;8990;33.226;-97.150;2024-02-15T10:25:12;12.30;99.90
17740;DHT22;8990;33.226;-97.150;2024-02-15T10:27:42;12.30;99.90
17740;DHT22;8990;33.226;-97.150;2024-02-15T10:30:17;12.30;99.90
17740;DHT22;8990;33.226;-97.150;2024-02-15T10:32:47;12.40;99.90
17740;DHT22;8990;33.226;-97.150;2024-02-15T10:35:20;12.20;99.90
17740;DHT22;8990;33.226;-97.150;2024-02-15T10:37:51;12.30;99.90
17740;DHT22;8990;33.226;-97.150;2024-02-15T10:40:21;12.20;99.90
17740;DHT22;8990;33.226;-97.150;2024-02-15T10:42:51;12.30;99.90
17740;DHT22;8990;33.226;-97.150;2024-02-15T10:45:20;12.20;99.90
17740;DHT22;8990;33.226;-97.150;2024-02-15T10:47:49;12.10;99.90
17740;DHT22;8990;33.226;-97.150;2024-02-15T10:50:19;12.30;99.90
17740;DHT22;8990;33.226;-97.150;2024-02-15T10:52:54;12.20;99.90
17740;DHT22;8990;33.226;-97.150;2024-02-15T10:55:35;12.30;99.90
17740;DHT22;8990;33.226;-97.150;2024-02-15T10:58:06;12.30;99.90
17740;DHT22;8990;33.226;-97.150;2024-02-15T11:00:36;12.20;99.90
17740;DHT22;8990;33.226;-97.150;2024-02-15T11:03:08;12.20;99.90
17740;DHT22;8990;33.226;-97.150;2024-02-15T11:05:41;12.20;99.90
17740;DHT22;8990;33.226;-97.150;2024-02-15T11:08:13;12.00;99.90
17740;DHT22;8990;33.226;-97.150;2024-02-15T11:10:44;12.20;99.90
17740;DHT22;8990;33.226;-97.150;2024-02-15T11:13:15;12.20;99.90
17740;DHT22;8990;33.226;-97.150;2024-02-15T11:15:45;12.00;99.90
17740;DHT22;8990;33.226;-97.150;2024-02-15T11:18:44;12.20;99.90
17740;DHT22;8990;33.226;-97.150;2024-02-15T11:21:16;12.00;99.90
17740;DHT22;8990;33.226;-97.150;2024-02-15T11:23:47;12.20;99.90
17740;DHT22;8990;33.226;-97.150;2024-02-15T11:26:43;12.10;99.90
17740;DHT22;8990;33.226;-97.150;2024-02-15T11:32:40;12.10;99.90
17740;DHT22;8990;33.226;-97.150;2024-02-15T11:35:11;12.10;99.90
17740;DHT22;8990;33.226;-97.150;2024-02-15T11:37:54;12.20;99.90
17740;DHT22;8990;33.226;-97.150;2024-02-15T11:40:27;12.10;99.90
17740;DHT22;8990;33.226;-97.150;2024-02-15T11:42:57;12.20;99.90
17740;DHT22;8990;33.226;-97.150;2024-02-15T11:45:27;12.10;99.90
17740;DHT22;8990;33.226;-97.150;2024-02-15T11:48:00;12.10;99.90
17740;DHT22;8990;33.226;-97.150;2024-02-15T11:50:30;12.10;99.90
17740;DHT22;8990;33.226;-97.150;2024-02-15T11:53:04;11.90;99.90
17740;DHT22;8990;33.226;-97.150;2024-02-15T11:55:38;12.10;99.90
17740;DHT22;8990;33.226;-97.150;2024-02-15T11:58:08;11.90;99.90
17740;DHT22;8990;33.226;-97.150;2024-02-15T12:00:48;11.90;99.90
17740;DHT22;8990;33.226;-97.150;2024-02-15T12:03:34;11.90;99.90
17740;DHT22;8990;33.226;-97.150;2024-02-15T12:06:20;12.10;99.90
17740;DHT22;8990;33.226;-97.150;2024-02-15T12:09:10;12.00;99.90
17740;DHT22;8990;33.226;-97.150;2024-02-15T12:11:59;11.80;99.90
17740;DHT22;8990;33.226;-97.150;2024-02-15T12:14:46;11.90;99.90
17740;DHT22;8990;33.226;-97.150;2024-02-15T12:17:32;11.90;99.90
17740;DHT22;8990;33.226;-97.150;2024-02-15T12:20:18;11.80;99.90
17740;DHT22;8990;33.226;-97.150;2024-02-15T12:22:52;11.70;99.90
17740;DHT22;8990;33.226;-97.150;2024-02-15T12:25:21;11.70;99.90
17740;DHT22;8990;33.226;-97.150;2024-02-15T12:27:55;11.70;99.90
17740;DHT22;8990;33.226;-97.150;2024-02-15T12:30:26;11.80;99.90
17740;DHT22;8990;33.226;-97.150;2024-02-15T12:33:10;11.80;99.90
17740;DHT22;8990;33.226;-97.150;2024-02-15T12:35:39;11.90;99.90
17740;DHT22;8990;33.226;-97.150;2024-02-15T12:38:09;11.80;99.90
17740;DHT22;8990;33.226;-97.150;2024-02-15T12:40:40;11.90;99.90
17740;DHT22;8990;33.226;-97.150;2024-02-15T12:43:11;11.80;99.90
17740;DHT22;8990;33.226;-97.150;2024-02-15T12:45:42;11.80;99.90
17740;DHT22;8990;33.226;-97.150;2024-02-15T12:48:13;11.70;99.90
17740;DHT22;8990;33.226;-97.150;2024-02-15T12:50:43;11.80;99.90
17740;DHT22;8990;33.226;-97.150;2024-02-15T12:53:15;11.80;99.90
17740;DHT22;8990;33.226;-97.150;2024-02-15T12:55:53;11.60;99.90
17740;DHT22;8990;33.226;-97.150;2024-02-15T12:58:27;11.80;99.90
17740;DHT22;8990;33.226;-97.150;2024-02-15T13:00:57;11.60;99.90
17740;DHT22;8990;33.226;-97.150;2024-02-15T13:03:28;11.80;99.90
17740;DHT22;8990;33.226;-97.150;2024-02-15T13:05:57;11.70;99.90
17740;DHT22;8990;33.226;-97.150;2024-02-15T13:08:26;11.60;99.90
17740;DHT22;8990;33.226;-97.150;2024-02-15T13:10:55;11.60;99.90
17740;DHT22;8990;33.226;-97.150;2024-02-15T13:13:26;11.70;99.90
17740;DHT22;8990;33.226;-97.150;2024-02-15T13:15:55;11.40;99.90
17740;DHT22;8990;33.226;-97.150;2024-02-15T13:18:25;11.50;99.90
17740;DHT22;8990;33.226;-97.150;2024-02-15T13:20:55;11.80;99.90
17740;DHT22;8990;33.226;-97.150;2024-02-15T13:23:24;11.60;99.90
17740;DHT22;8990;33.226;-97.150;2024-02-15T13:25:53;11.70;99.90
17740;DHT22;8990;33.226;-97.150;2024-02-15T13:28:23;11.60;99.90
17740;DHT22;8990;33.226;-97.150;2024-02-15T13:30:55;11.70;99.90
17740;DHT22;8990;33.226;-97.150;2024-02-15T13:33:24;11.60;99.90
17740;DHT22;8990;33.226;-97.150;2024-02-15T13:35:56;11.80;99.90
17740;DHT22;8990;33.226;-97.150;2024-02-15T13:38:25;11.60;99.90
17740;DHT22;8990;33.226;-97.150;2024-02-15T13:40:55;11.60;99.90
17740;DHT22;8990;33.226;-97.150;2024-02-15T13:43:26;11.60;99.90
17740;DHT22;8990;33.226;-97.150;2024-02-15T13:45:57;11.50;99.90
17740;DHT22;8990;33.226;-97.150;2024-02-15T13:48:29;11.60;99.90
17740;DHT22;8990;33.226;-97.150;2024-02-15T13:50:58;11.50;99.90
17740;DHT22;8990;33.226;-97.150;2024-02-15T13:53:27;11.90;99.90
17740;DHT22;8990;33.226;-97.150;2024-02-15T13:55:56;11.90;99.90
17740;DHT22;8990;33.226;-97.150;2024-02-15T13:58:26;11.90;99.90
17740;DHT22;8990;33.226;-97.150;2024-02-15T14:00:57;12.00;99.90
17740;DHT22;8990;33.226;-97.150;2024-02-15T14:03:30;11.90;99.90
17740;DHT22;8990;33.226;-97.150;2024-02-15T14:06:00;12.10;99.90
17740;DHT22;8990;33.226;-97.150;2024-02-15T14:08:31;12.10;99.90
17740;DHT22;8990;33.226;-97.150;2024-02-15T14:11:00;12.10;99.90
17740;DHT22;8990;33.226;-97.150;2024-02-15T14:13:29;12.30;99.90
17740;DHT22;8990;33.226;-97.150;2024-02-15T14:16:00;12.30;99.90
17740;DHT22;8990;33.226;-97.150;2024-02-15T14:18:30;12.20;99.90
17740;DHT22;8990;33.226;-97.150;2024-02-15T14:20:59;12.40;99.90
17740;DHT22;8990;33.226;-97.150;2024-02-15T14:23:29;12.40;99.90
17740;DHT22;8990;33.226;-97.150;2024-02-15T14:25:58;12.70;99.90
17740;DHT22;8990;33.226;-97.150;2024-02-15T14:28:27;12.50;99.90
17740;DHT22;8990;33.226;-97.150;2024-02-15T14:30:57;12.70;99.90
17740;DHT22;8990;33.226;-97.150;2024-02-15T14:33:44;12.80;99.90
17740;DHT22;8990;33.226;-97.150;2024-02-15T14:36:13;12.80;99.90
17740;DHT22;8990;33.226;-97.150;2024-02-15T14:38:42;12.80;99.90
17740;DHT22;8990;33.226;-97.150;2024-02-15T14:41:12;13.00;99.90
17740;DHT22;8990;33.226;-97.150;2024-02-15T14:43:41;13.00;99.90
17740;DHT22;8990;33.226;-97.150;2024-02-15T14:46:10;13.10;99.90
17740;DHT22;8990;33.226;-97.150;2024-02-15T14:48:39;13.10;99.90
17740;DHT22;8990;33.226;-97.150;2024-02-15T14:51:15;13.10;99.90
17740;DHT22;8990;33.226;-97.150;2024-02-15T14:53:46;13.30;99.90
17740;DHT22;8990;33.226;-97.150;2024-02-15T14:56:16;13.30;99.90
17740;DHT22;8990;33.226;-97.150;2024-02-15T14:58:46;13.50;99.90
17740;DHT22;8990;33.226;-97.150;2024-02-15T15:01:15;13.60;99.90
17740;DHT22;8990;33.226;-97.150;2024-02-15T15:03:54;13.70;99.90
17740;DHT22;8990;33.226;-97.150;2024-02-15T15:06:27;13.80;99.90
17740;DHT22;8990;33.226;-97.150;2024-02-15T15:09:12;14.00;99.90
17740;DHT22;8990;33.226;-97.150;2024-02-15T15:11:56;14.00;99.90
17740;DHT22;8990;33.226;-97.150;2024-02-15T15:14:41;14.00;99.90
17740;DHT22;8990;33.226;-97.150;2024-02-15T15:17:12;14.10;99.90
17740;DHT22;8990;33.226;-97.150;2024-02-15T15:19:43;14.00;99.90
17740;DHT22;8990;33.226;-97.150;2024-02-15T15:22:13;14.20;99.90
17740;DHT22;8990;33.226;-97.150;2024-02-15T15:24:43;14.20;99.90
17740;DHT22;8990;33.226;-97.150;2024-02-15T15:27:12;14.10;99.90
17740;DHT22;8990;33.226;-97.150;2024-02-15T15:29:41;14.10;99.90
17740;DHT22;8990;33.226;-97.150;2024-02-15T15:32:10;14.10;99.90
17740;DHT22;8990;33.226;-97.150;2024-02-15T15:34:39;14.20;99.90
17740;DHT22;8990;33.226;-97.150;2024-02-15T15:37:08;14.30;99.90
17740;DHT22;8990;33.226;-97.150;2024-02-15T15:39:41;14.30;99.90
17740;DHT22;8990;33.226;-97.150;2024-02-15T15:42:10;14.30;99.90